sensor_id;sensor_type;location;lat;lon;timestamp;pressure;altitude;pressure_sealevel;temperature;humidity
60417;BME280;46263;44.726;10.396;2022-12-29T00:01:13;101263.13;;;12.42;73.78
60417;BME280;46263;44.726;10.396;2022-12-29T00:03:39;101266.41;;;12.46;73.61
60417;BME280;46263;44.726;10.396;2022-12-29T00:06:05;101267.69;;;12.45;73.65
60417;BME280;46263;44.726;10.396;2022-12-29T00:08:30;101274.56;;;12.44;73.64
60417;BME280;46263;44.726;10.396;2022-12-29T00:11:17;101265.66;;;12.40;73.63
60417;BME280;46263;44.726;10.396;2022-12-29T00:13:43;101272.28;;;12.43;74.30
60417;BME280;46263;44.726;10.396;2022-12-29T00:16:27;101260.81;;;12.41;74.46
60417;BME280;46263;44.726;10.396;2022-12-29T00:18:52;101263.34;;;12.44;74.36
60417;BME280;46263;44.726;10.396;2022-12-29T00:21:20;101259.78;;;12.44;74.43
60417;BME280;46263;44.726;10.396;2022-12-29T00:24:04;101252.91;;;12.45;73.80
60417;BME280;46263;44.726;10.396;2022-12-29T00:29:47;101248.84;;;12.40;74.29
60417;BME280;46263;44.726;10.396;2022-12-29T00:32:31;101241.44;;;12.37;73.94
60417;BME280;46263;44.726;10.396;2022-12-29T00:35:38;101239.19;;;12.36;74.57
60417;BME280;46263;44.726;10.396;2022-12-29T00:38:05;101240.97;;;12.33;74.26
60417;BME280;46263;44.726;10.396;2022-12-29T00:40:51;101236.91;;;12.29;74.15
60417;BME280;46263;44.726;10.396;2022-12-29T00:43:34;101237.91;;;12.31;73.81
60417;BME280;46263;44.726;10.396;2022-12-29T00:46:18;101245.84;;;12.27;74.56
60417;BME280;46263;44.726;10.396;2022-12-29T00:48:44;101241.47;;;12.32;74.81
60417;BME280;46263;44.726;10.396;2022-12-29T00:51:28;101235.38;;;12.33;74.37
60417;BME280;46263;44.726;10.396;2022-12-29T00:53:53;101237.91;;;12.31;74.58
60417;BME280;46263;44.726;10.396;2022-12-29T00:56:19;101237.91;;;12.31;74.25
60417;BME280;46263;44.726;10.396;2022-12-29T00:58:44;101231.03;;;12.32;74.11
60417;BME280;46263;44.726;10.396;2022-12-29T01:01:10;101230.03;;;12.30;74.03
60417;BME280;46263;44.726;10.396;2022-12-29T01:03:36;101236.13;;;12.28;74.43
60417;BME280;46263;44.726;10.396;2022-12-29T01:06:04;101237.91;;;12.26;74.39
60417;BME280;46263;44.726;10.396;2022-12-29T01:08:30;101235.63;;;12.30;74.13
60417;BME280;46263;44.726;10.396;2022-12-29T01:11:04;101229.75;;;12.33;74.29
60417;BME280;46263;44.726;10.396;2022-12-29T01:13:30;101230.75;;;12.36;74.93
60417;BME280;46263;44.726;10.396;2022-12-29T01:15:55;101235.84;;;12.32;74.16
60417;BME280;46263;44.726;10.396;2022-12-29T01:18:21;101234.31;;;12.36;74.08
60417;BME280;46263;44.726;10.396;2022-12-29T01:20:47;101239.94;;;12.36;73.66
60417;BME280;46263;44.726;10.396;2022-12-29T01:23:13;101246.31;;;12.31;74.19
60417;BME280;46263;44.726;10.396;2022-12-29T01:25:38;101244.28;;;12.32;73.55
60417;BME280;46263;44.726;10.396;2022-12-29T01:28:04;101241.22;;;12.30;73.68
60417;BME280;46263;44.726;10.396;2022-12-29T01:30:30;101237.44;;;12.27;74.18
60417;BME280;46263;44.726;10.396;2022-12-29T01:32:55;101246.06;;;12.29;74.39
60417;BME280;46263;44.726;10.396;2022-12-29T01:35:21;101237.91;;;12.31;73.85
60417;BME280;46263;44.726;10.396;2022-12-29T01:37:46;101231.56;;;12.31;73.94
60417;BME280;46263;44.726;10.396;2022-12-29T01:40:12;101238.44;;;12.35;74.03
60417;BME280;46263;44.726;10.396;2022-12-29T01:42:38;101233.84;;;12.32;74.08
60417;BME280;46263;44.726;10.396;2022-12-29T01:45:09;101235.84;;;12.32;73.69
60417;BME280;46263;44.726;10.396;2022-12-29T01:50:10;101234.09;;;12.29;74.15
60417;BME280;46263;44.726;10.396;2022-12-29T01:52:40;101235.63;;;12.35;74.13
60417;BME280;46263;44.726;10.396;2022-12-29T01:55:08;101238.69;;;12.26;73.37
60417;BME280;46263;44.726;10.396;2022-12-29T01:57:38;101242.00;;;12.25;73.58
60417;BME280;46263;44.726;10.396;2022-12-29T02:00:11;101232.31;;;12.20;74.05
60417;BME280;46263;44.726;10.396;2022-12-29T02:02:37;101237.44;;;12.16;74.23
60417;BME280;46263;44.726;10.396;2022-12-29T02:05:09;101238.19;;;12.22;74.64
60417;BME280;46263;44.726;10.396;2022-12-29T02:07:37;101231.56;;;12.20;74.17
60417;BME280;46263;44.726;10.396;2022-12-29T02:10:03;101235.91;;;12.15;74.24
60417;BME280;46263;44.726;10.396;2022-12-29T02:12:29;101224.97;;;12.06;74.74
60417;BME280;46263;44.726;10.396;2022-12-29T02:14:58;101221.16;;;12.04;75.14
60417;BME280;46263;44.726;10.396;2022-12-29T02:35:41;101210.69;;;12.10;74.72
60417;BME280;46263;44.726;10.396;2022-12-29T02:40:53;101213.25;;;12.08;74.74
60417;BME280;46263;44.726;10.396;2022-12-29T02:48:38;101205.34;;;12.06;74.35
60417;BME280;46263;44.726;10.396;2022-12-29T02:51:20;101203.56;;;12.09;74.54
60417;BME280;46263;44.726;10.396;2022-12-29T02:53:50;101196.69;;;12.10;74.84
60417;BME280;46263;44.726;10.396;2022-12-29T02:56:34;101191.09;;;12.10;74.22
60417;BME280;46263;44.726;10.396;2022-12-29T02:59:00;101179.13;;;12.09;74.27
60417;BME280;46263;44.726;10.396;2022-12-29T03:13:02;101190.31;;;12.15;74.63
60417;BME280;46263;44.726;10.396;2022-12-29T03:16:12;101181.66;;;12.13;74.64
60417;BME280;46263;44.726;10.396;2022-12-29T03:18:59;101167.16;;;12.03;74.71
60417;BME280;46263;44.726;10.396;2022-12-29T03:24:17;101170.47;;;12.07;74.19
60417;BME280;46263;44.726;10.396;2022-12-29T03:26:45;101169.69;;;12.12;74.39
60417;BME280;46263;44.726;10.396;2022-12-29T03:29:12;101164.59;;;12.05;74.47
60417;BME280;46263;44.726;10.396;2022-12-29T03:31:41;101162.88;;;11.92;74.73
60417;BME280;46263;44.726;10.396;2022-12-29T03:34:07;101154.94;;;11.95;74.72
60417;BME280;46263;44.726;10.396;2022-12-29T03:36:40;101153.94;;;12.04;74.86
60417;BME280;46263;44.726;10.396;2022-12-29T03:39:10;101159.00;;;12.11;74.70
60417;BME280;46263;44.726;10.396;2022-12-29T03:41:43;101169.19;;;12.14;74.80
60417;BME280;46263;44.726;10.396;2022-12-29T03:44:11;101164.88;;;11.96;75.01
60417;BME280;46263;44.726;10.396;2022-12-29T03:46:37;101172.75;;;12.03;74.89
60417;BME280;46263;44.726;10.396;2022-12-29T03:49:03;101163.06;;;12.04;74.28
60417;BME280;46263;44.726;10.396;2022-12-29T03:51:28;101159.50;;;12.09;74.21
60417;BME280;46263;44.726;10.396;2022-12-29T03:53:54;101168.94;;;12.06;74.70
60417;BME280;46263;44.726;10.396;2022-12-29T03:56:19;101172.53;;;12.01;74.75
60417;BME280;46263;44.726;10.396;2022-12-29T03:58:45;101170.47;;;11.96;75.20
60417;BME280;46263;44.726;10.396;2022-12-29T04:01:10;101166.69;;;11.89;75.04
60417;BME280;46263;44.726;10.396;2022-12-29T04:03:36;101179.69;;;11.92;75.18
60417;BME280;46263;44.726;10.396;2022-12-29T04:06:01;101175.06;;;11.94;74.88
60417;BME280;46263;44.726;10.396;2022-12-29T04:08:27;101170.00;;;11.82;74.96
60417;BME280;46263;44.726;10.396;2022-12-29T04:10:52;101173.81;;;11.90;75.04
60417;BME280;46263;44.726;10.396;2022-12-29T04:13:18;101173.56;;;11.93;75.19
60417;BME280;46263;44.726;10.396;2022-12-29T04:15:43;101176.09;;;11.96;75.14
60417;BME280;46263;44.726;10.396;2022-12-29T04:18:11;101166.94;;;11.96;75.08
60417;BME280;46263;44.726;10.396;2022-12-29T04:20:36;101176.06;;;12.02;74.64
60417;BME280;46263;44.726;10.396;2022-12-29T04:23:20;101194.69;;;11.99;74.59
60417;BME280;46263;44.726;10.396;2022-12-29T04:25:46;101194.94;;;12.01;75.22
60417;BME280;46263;44.726;10.396;2022-12-29T04:28:13;101196.69;;;12.04;74.34
60417;BME280;46263;44.726;10.396;2022-12-29T04:30:39;101190.88;;;11.97;74.62
60417;BME280;46263;44.726;10.396;2022-12-29T04:33:04;101187.28;;;12.02;75.16
60417;BME280;46263;44.726;10.396;2022-12-29T04:35:29;101182.47;;;11.97;74.95
60417;BME280;46263;44.726;10.396;2022-12-29T04:37:55;101184.53;;;11.86;75.43
60417;BME280;46263;44.726;10.396;2022-12-29T04:40:20;101178.41;;;11.93;74.94
60417;BME280;46263;44.726;10.396;2022-12-29T04:42:46;101176.13;;;11.91;74.52
60417;BME280;46263;44.726;10.396;2022-12-29T04:45:11;101188.56;;;11.95;74.50
60417;BME280;46263;44.726;10.396;2022-12-29T04:47:37;101193.94;;;11.93;74.82
60417;BME280;46263;44.726;10.396;2022-12-29T04:50:03;101182.72;;;11.93;74.75
60417;BME280;46263;44.726;10.396;2022-12-29T04:52:29;101179.44;;;11.79;75.32
60417;BME280;46263;44.726;10.396;2022-12-29T04:54:54;101181.47;;;11.84;75.34
60417;BME280;46263;44.726;10.396;2022-12-29T04:57:20;101176.88;;;11.86;74.78
60417;BME280;46263;44.726;10.396;2022-12-29T04:59:45;101193.41;;;11.84;75.25
60417;BME280;46263;44.726;10.396;2022-12-29T05:02:11;101173.81;;;11.90;75.01
60417;BME280;46263;44.726;10.396;2022-12-29T05:04:36;101171.25;;;11.97;74.81
60417;BME280;46263;44.726;10.396;2022-12-29T05:07:02;101172.81;;;11.93;74.41
60417;BME280;46263;44.726;10.396;2022-12-29T05:09:27;101176.34;;;11.98;74.55
60417;BME280;46263;44.726;10.396;2022-12-29T05:11:53;101175.06;;;11.94;74.88
60417;BME280;46263;44.726;10.396;2022-12-29T05:14:18;101176.34;;;11.98;74.63
60417;BME280;46263;44.726;10.396;2022-12-29T05:16:43;101177.88;;;11.99;74.42
60417;BME280;46263;44.726;10.396;2022-12-29T05:19:09;101179.94;;;11.99;74.78
60417;BME280;46263;44.726;10.396;2022-12-29T05:21:34;101184.50;;;11.96;74.21
60417;BME280;46263;44.726;10.396;2022-12-29T05:24:00;101189.88;;;11.94;74.58
60417;BME280;46263;44.726;10.396;2022-12-29T05:26:25;101178.16;;;11.91;74.78
60417;BME280;46263;44.726;10.396;2022-12-29T05:28:52;101175.34;;;11.80;75.28
60417;BME280;46263;44.726;10.396;2022-12-29T05:31:17;101176.34;;;11.88;75.12
60417;BME280;46263;44.726;10.396;2022-12-29T05:33:42;101184.75;;;11.88;74.89
60417;BME280;46263;44.726;10.396;2022-12-29T05:36:09;101194.69;;;11.89;74.89
60417;BME280;46263;44.726;10.396;2022-12-29T05:38:34;101196.75;;;11.88;75.01
60417;BME280;46263;44.726;10.396;2022-12-29T05:41:00;101186.81;;;11.93;74.51
60417;BME280;46263;44.726;10.396;2022-12-29T05:43:26;101191.41;;;11.90;75.19
60417;BME280;46263;44.726;10.396;2022-12-29T05:45:52;101205.13;;;11.93;74.90
60417;BME280;46263;44.726;10.396;2022-12-29T05:48:18;101210.97;;;11.95;74.90
60417;BME280;46263;44.726;10.396;2022-12-29T05:50:50;101213.03;;;11.95;74.81
60417;BME280;46263;44.726;10.396;2022-12-29T05:53:16;101204.63;;;11.90;74.77
60417;BME280;46263;44.726;10.396;2022-12-29T05:55:42;101212.03;;;11.87;75.16
60417;BME280;46263;44.726;10.396;2022-12-29T05:58:08;101209.97;;;11.93;74.70
60417;BME280;46263;44.726;10.396;2022-12-29T06:00:34;101219.16;;;11.93;74.60
60417;BME280;46263;44.726;10.396;2022-12-29T06:02:59;101219.41;;;11.90;74.82
60417;BME280;46263;44.726;10.396;2022-12-29T06:05:25;101210.97;;;11.95;74.78
60417;BME280;46263;44.726;10.396;2022-12-29T06:07:51;101217.88;;;11.94;75.06
60417;BME280;46263;44.726;10.396;2022-12-29T06:10:16;101226.50;;;11.96;74.97
60417;BME280;46263;44.726;10.396;2022-12-29T06:12:42;101221.16;;;11.98;74.88
60417;BME280;46263;44.726;10.396;2022-12-29T06:15:08;101219.63;;;11.97;74.58
60417;BME280;46263;44.726;10.396;2022-12-29T06:17:33;101214.03;;;11.97;74.49
60417;BME280;46263;44.726;10.396;2022-12-29T06:19:59;101211.22;;;11.97;75.24
60417;BME280;46263;44.726;10.396;2022-12-29T06:22:24;101208.44;;;11.97;74.82
60417;BME280;46263;44.726;10.396;2022-12-29T06:24:50;101196.97;;;12.01;75.30
60417;BME280;46263;44.726;10.396;2022-12-29T06:27:15;101205.13;;;11.99;75.31
60417;BME280;46263;44.726;10.396;2022-12-29T06:29:41;101210.47;;;12.02;75.11
60417;BME280;46263;44.726;10.396;2022-12-29T06:32:08;101220.91;;;12.07;74.54
60417;BME280;46263;44.726;10.396;2022-12-29T06:34:34;101214.78;;;12.09;75.24
60417;BME280;46263;44.726;10.396;2022-12-29T06:36:59;101203.09;;;11.94;75.18
60417;BME280;46263;44.726;10.396;2022-12-29T06:39:25;101185.75;;;11.95;75.61
60417;BME280;46263;44.726;10.396;2022-12-29T06:41:54;101189.84;;;12.00;75.02
60417;BME280;46263;44.726;10.396;2022-12-29T06:44:20;101207.16;;;12.09;74.81
60417;BME280;46263;44.726;10.396;2022-12-29T06:46:46;101211.72;;;12.12;75.10
60417;BME280;46263;44.726;10.396;2022-12-29T06:49:12;101214.50;;;12.12;75.02
60417;BME280;46263;44.726;10.396;2022-12-29T06:51:38;101215.03;;;12.11;74.51
60417;BME280;46263;44.726;10.396;2022-12-29T06:54:03;101203.84;;;12.05;74.93
60417;BME280;46263;44.726;10.396;2022-12-29T06:56:29;101207.69;;;12.02;75.09
60417;BME280;46263;44.726;10.396;2022-12-29T06:58:54;101210.47;;;12.02;75.08
60417;BME280;46263;44.726;10.396;2022-12-29T07:01:20;101216.56;;;12.06;75.04
60417;BME280;46263;44.726;10.396;2022-12-29T07:03:45;101214.03;;;12.08;75.32
60417;BME280;46263;44.726;10.396;2022-12-29T07:06:11;101212.22;;;12.16;75.70
60417;BME280;46263;44.726;10.396;2022-12-29T07:08:36;101210.94;;;12.17;75.40
60417;BME280;46263;44.726;10.396;2022-12-29T07:11:02;101213.75;;;12.23;74.81
60417;BME280;46263;44.726;10.396;2022-12-29T07:13:28;101214.75;;;12.25;74.70
60417;BME280;46263;44.726;10.396;2022-12-29T07:15:53;101211.22;;;12.19;75.87
60417;BME280;46263;44.726;10.396;2022-12-29T07:18:19;101212.44;;;12.24;74.41
60417;BME280;46263;44.726;10.396;2022-12-29T07:20:44;101217.28;;;12.23;74.57
60417;BME280;46263;44.726;10.396;2022-12-29T07:23:10;101219.34;;;12.17;74.37
60417;BME280;46263;44.726;10.396;2022-12-29T07:25:35;101222.41;;;12.19;74.24
60417;BME280;46263;44.726;10.396;2022-12-29T07:28:02;101221.91;;;12.21;74.35
60417;BME280;46263;44.726;10.396;2022-12-29T07:30:28;101221.13;;;12.20;73.94
60417;BME280;46263;44.726;10.396;2022-12-29T07:32:53;101216.56;;;12.17;74.63
60417;BME280;46263;44.726;10.396;2022-12-29T07:35:19;101208.16;;;12.12;74.55
60417;BME280;46263;44.726;10.396;2022-12-29T07:37:45;101214.75;;;12.14;74.99
60417;BME280;46263;44.726;10.396;2022-12-29T07:40:10;101210.16;;;12.22;74.58
60417;BME280;46263;44.726;10.396;2022-12-29T07:42:36;101212.97;;;12.22;75.07
60417;BME280;46263;44.726;10.396;2022-12-29T07:45:02;101213.47;;;12.26;74.14
60417;BME280;46263;44.726;10.396;2022-12-29T07:47:28;101213.22;;;12.19;73.34
60417;BME280;46263;44.726;10.396;2022-12-29T07:49:53;101224.69;;;12.26;74.15
60417;BME280;46263;44.726;10.396;2022-12-29T07:52:18;101223.66;;;12.24;74.45
60417;BME280;46263;44.726;10.396;2022-12-29T07:54:44;101210.66;;;12.26;74.73
60417;BME280;46263;44.726;10.396;2022-12-29T07:57:10;101216.28;;;12.26;74.68
60417;BME280;46263;44.726;10.396;2022-12-29T07:59:35;101211.16;;;12.30;73.86
60417;BME280;46263;44.726;10.396;2022-12-29T08:02:01;101220.59;;;12.27;73.80
60417;BME280;46263;44.726;10.396;2022-12-29T08:04:26;101211.69;;;12.29;73.54
60417;BME280;46263;44.726;10.396;2022-12-29T08:06:52;101206.34;;;12.25;73.90
60417;BME280;46263;44.726;10.396;2022-12-29T08:09:17;101213.47;;;12.26;73.24
60417;BME280;46263;44.726;10.396;2022-12-29T08:11:43;101214.47;;;12.29;74.30
60417;BME280;46263;44.726;10.396;2022-12-29T08:14:08;101220.59;;;12.27;74.06
60417;BME280;46263;44.726;10.396;2022-12-29T08:16:34;101213.97;;;12.30;74.42
60417;BME280;46263;44.726;10.396;2022-12-29T08:19:00;101223.88;;;12.37;74.31
60417;BME280;46263;44.726;10.396;2022-12-29T08:21:27;101232.56;;;12.39;73.69
60417;BME280;46263;44.726;10.396;2022-12-29T08:23:53;101237.88;;;12.42;74.33
60417;BME280;46263;44.726;10.396;2022-12-29T08:26:18;101242.44;;;12.45;73.84
60417;BME280;46263;44.726;10.396;2022-12-29T08:28:44;101238.91;;;12.45;72.64
60417;BME280;46263;44.726;10.396;2022-12-29T08:31:09;101229.50;;;12.37;74.11
60417;BME280;46263;44.726;10.396;2022-12-29T08:33:35;101236.38;;;12.30;73.96
60417;BME280;46263;44.726;10.396;2022-12-29T08:36:02;101234.59;;;12.33;73.43
60417;BME280;46263;44.726;10.396;2022-12-29T08:38:28;101240.97;;;12.28;73.54
60417;BME280;46263;44.726;10.396;2022-12-29T08:40:54;101243.25;;;12.29;73.84
60417;BME280;46263;44.726;10.396;2022-12-29T08:43:20;101239.72;;;12.29;74.24
60417;BME280;46263;44.726;10.396;2022-12-29T08:45:45;101243.78;;;12.33;74.48
60417;BME280;46263;44.726;10.396;2022-12-29T08:48:11;101246.31;;;12.26;73.00
60417;BME280;46263;44.726;10.396;2022-12-29T08:50:36;101248.13;;;12.18;73.72
60417;BME280;46263;44.726;10.396;2022-12-29T08:53:02;101258.31;;;12.15;73.91
60417;BME280;46263;44.726;10.396;2022-12-29T08:55:28;101256.28;;;12.21;74.13
60417;BME280;46263;44.726;10.396;2022-12-29T08:57:53;101260.06;;;12.29;73.91
60417;BME280;46263;44.726;10.396;2022-12-29T09:00:19;101260.84;;;12.30;73.78
60417;BME280;46263;44.726;10.396;2022-12-29T09:02:45;101258.06;;;12.24;74.26
60417;BME280;46263;44.726;10.396;2022-12-29T09:05:11;101254.25;;;12.22;73.63
60417;BME280;46263;44.726;10.396;2022-12-29T09:07:36;101253.72;;;12.23;74.94
60417;BME280;46263;44.726;10.396;2022-12-29T09:10:03;101254.00;;;12.20;74.53
60417;BME280;46263;44.726;10.396;2022-12-29T09:12:29;101256.25;;;12.27;74.88
60417;BME280;46263;44.726;10.396;2022-12-29T09:14:54;101272.56;;;12.34;73.69
60417;BME280;46263;44.726;10.396;2022-12-29T09:17:20;101272.28;;;12.32;73.54
60417;BME280;46263;44.726;10.396;2022-12-29T09:20:04;101262.13;;;12.34;73.06
60417;BME280;46263;44.726;10.396;2022-12-29T09:22:30;101260.34;;;12.31;74.26
60417;BME280;46263;44.726;10.396;2022-12-29T09:24:55;101258.84;;;12.19;74.19
60417;BME280;46263;44.726;10.396;2022-12-29T09:27:21;101256.25;;;12.27;74.96
60417;BME280;46263;44.726;10.396;2022-12-29T09:29:46;101257.78;;;12.33;74.52
60417;BME280;46263;44.726;10.396;2022-12-29T09:32:12;101266.19;;;12.39;73.26
60417;BME280;46263;44.726;10.396;2022-12-29T09:34:37;101269.00;;;12.39;73.53
60417;BME280;46263;44.726;10.396;2022-12-29T09:37:03;101274.88;;;12.30;73.64
60417;BME280;46263;44.726;10.396;2022-12-29T09:39:28;101277.66;;;12.30;73.23
60417;BME280;46263;44.726;10.396;2022-12-29T09:42:19;101274.59;;;12.33;73.68
60417;BME280;46263;44.726;10.396;2022-12-29T09:45:00;101270.75;;;12.36;72.95
60417;BME280;46263;44.726;10.396;2022-12-29T09:47:30;101268.47;;;12.29;73.08
60417;BME280;46263;44.726;10.396;2022-12-29T09:55:53;101267.47;;;12.32;73.50
60417;BME280;46263;44.726;10.396;2022-12-29T09:58:36;101263.41;;;12.33;72.80
60417;BME280;46263;44.726;10.396;2022-12-29T10:03:50;101256.25;;;12.32;73.33
60417;BME280;46263;44.726;10.396;2022-12-29T10:06:23;101264.13;;;12.39;73.95
60417;BME280;46263;44.726;10.396;2022-12-29T10:09:03;101269.75;;;12.39;73.26
60417;BME280;46263;44.726;10.396;2022-12-29T10:25:23;101206.22;;;12.58;72.81
60417;BME280;46263;44.726;10.396;2022-12-29T10:27:53;101202.88;;;12.65;72.38
60417;BME280;46263;44.726;10.396;2022-12-29T10:30:19;101194.72;;;12.67;72.07
60417;BME280;46263;44.726;10.396;2022-12-29T10:32:52;101191.91;;;12.67;72.84
60417;BME280;46263;44.726;10.396;2022-12-29T10:35:21;101196.00;;;12.66;72.99
60417;BME280;46263;44.726;10.396;2022-12-29T10:38:09;101201.56;;;12.72;71.72
60417;BME280;46263;44.726;10.396;2022-12-29T10:45:47;101199.75;;;12.79;71.15
60417;BME280;46263;44.726;10.396;2022-12-29T10:48:22;101187.47;;;12.82;73.16
60417;BME280;46263;44.726;10.396;2022-12-29T10:50:50;101194.09;;;12.85;72.74
60417;BME280;46263;44.726;10.396;2022-12-29T10:53:25;101211.94;;;12.93;72.11
60417;BME280;46263;44.726;10.396;2022-12-29T10:55:51;101211.44;;;12.94;71.93
60417;BME280;46263;44.726;10.396;2022-12-29T10:58:18;101208.09;;;12.96;73.08
60417;BME280;46263;44.726;10.396;2022-12-29T11:00:49;101208.38;;;12.81;71.19
60417;BME280;46263;44.726;10.396;2022-12-29T11:03:19;101201.75;;;12.84;70.61
60417;BME280;46263;44.726;10.396;2022-12-29T11:05:59;101194.38;;;12.81;71.00
60417;BME280;46263;44.726;10.396;2022-12-29T11:08:30;101195.13;;;12.87;71.23
60417;BME280;46263;44.726;10.396;2022-12-29T11:11:08;101188.72;;;12.92;71.32
60417;BME280;46263;44.726;10.396;2022-12-29T11:13:47;101184.94;;;12.90;70.83
60417;BME280;46263;44.726;10.396;2022-12-29T11:16:13;101186.97;;;12.84;71.03
60417;BME280;46263;44.726;10.396;2022-12-29T11:18:40;101171.16;;;12.86;72.87
60417;BME280;46263;44.726;10.396;2022-12-29T11:24:14;101171.91;;;12.92;73.17
60417;BME280;46263;44.726;10.396;2022-12-29T11:26:43;101170.34;;;12.97;72.90
60417;BME280;46263;44.726;10.396;2022-12-29T11:31:50;101178.50;;;12.95;72.23
60417;BME280;46263;44.726;10.396;2022-12-29T11:34:35;101170.63;;;12.93;71.54
60417;BME280;46263;44.726;10.396;2022-12-29T11:37:13;101173.16;;;12.97;72.73
60417;BME280;46263;44.726;10.396;2022-12-29T11:40:06;101184.34;;;13.02;72.27
60417;BME280;46263;44.726;10.396;2022-12-29T11:42:37;101164.97;;;12.99;73.12
60417;BME280;46263;44.726;10.396;2022-12-29T11:45:20;101150.94;;;12.99;73.33
60417;BME280;46263;44.726;10.396;2022-12-29T11:48:13;101136.66;;;12.97;72.88
60417;BME280;46263;44.726;10.396;2022-12-29T11:50:38;101149.66;;;13.00;72.65
60417;BME280;46263;44.726;10.396;2022-12-29T11:55:51;101158.09;;;13.00;73.21
60417;BME280;46263;44.726;10.396;2022-12-29T11:58:18;101154.75;;;13.01;73.00
60417;BME280;46263;44.726;10.396;2022-12-29T12:00:44;101137.63;;;13.05;73.23
60417;BME280;46263;44.726;10.396;2022-12-29T12:05:41;101149.38;;;13.03;73.54
60417;BME280;46263;44.726;10.396;2022-12-29T12:11:28;101143.00;;;13.03;71.73
60417;BME280;46263;44.726;10.396;2022-12-29T12:14:46;101137.13;;;13.01;72.49
60417;BME280;46263;44.726;10.396;2022-12-29T12:16:55;101133.88;;;12.97;72.50
60417;BME280;46263;44.726;10.396;2022-12-29T12:19:48;101128.25;;;12.97;73.07
60417;BME280;46263;44.726;10.396;2022-12-29T12:22:36;101133.88;;;12.97;73.05
60417;BME280;46263;44.726;10.396;2022-12-29T12:27:51;101138.75;;;12.91;72.87
60417;BME280;46263;44.726;10.396;2022-12-29T12:30:23;101139.50;;;12.91;72.93
60417;BME280;46263;44.726;10.396;2022-12-29T12:47:10;101108.94;;;12.82;72.71
60417;BME280;46263;44.726;10.396;2022-12-29T12:50:06;101128.06;;;12.84;72.43
60417;BME280;46263;44.726;10.396;2022-12-29T12:57:56;101118.09;;;12.88;72.62
60417;BME280;46263;44.726;10.396;2022-12-29T13:00:25;101101.78;;;12.81;72.58
60417;BME280;46263;44.726;10.396;2022-12-29T13:03:38;101103.59;;;12.79;72.75
60417;BME280;46263;44.726;10.396;2022-12-29T13:22:20;101091.91;;;12.75;74.17
60417;BME280;46263;44.726;10.396;2022-12-29T13:25:07;101098.00;;;12.79;74.22
60417;BME280;46263;44.726;10.396;2022-12-29T13:30:28;101079.13;;;12.79;76.42
60417;BME280;46263;44.726;10.396;2022-12-29T13:35:38;101101.50;;;12.85;73.92
60417;BME280;46263;44.726;10.396;2022-12-29T13:40:55;101079.59;;;12.89;73.72
60417;BME280;46263;44.726;10.396;2022-12-29T13:43:22;101087.72;;;12.87;73.55
60417;BME280;46263;44.726;10.396;2022-12-29T13:46:12;101084.44;;;12.88;74.17
60417;BME280;46263;44.726;10.396;2022-12-29T13:48:44;101086.47;;;12.88;75.36
60417;BME280;46263;44.726;10.396;2022-12-29T13:51:13;101085.22;;;12.89;73.75
60417;BME280;46263;44.726;10.396;2022-12-29T13:56:24;101098.72;;;12.85;73.86
60417;BME280;46263;44.726;10.396;2022-12-29T13:58:58;101089.78;;;12.86;73.99
60417;BME280;46263;44.726;10.396;2022-12-29T14:01:35;101076.78;;;12.89;74.25
60417;BME280;46263;44.726;10.396;2022-12-29T14:04:21;101086.19;;;12.91;73.28
60417;BME280;46263;44.726;10.396;2022-12-29T14:07:04;101076.03;;;12.83;73.40
60417;BME280;46263;44.726;10.396;2022-12-29T14:11:59;101085.78;;;12.76;72.77
60417;BME280;46263;44.726;10.396;2022-12-29T14:14:28;101094.94;;;12.77;72.94
60417;BME280;46263;44.726;10.396;2022-12-29T14:17:08;101108.75;;;12.75;72.96
60417;BME280;46263;44.726;10.396;2022-12-29T14:19:39;101098.03;;;12.73;73.57
60417;BME280;46263;44.726;10.396;2022-12-29T14:22:06;101087.91;;;12.65;73.37
60417;BME280;46263;44.726;10.396;2022-12-29T14:34:47;101080.22;;;12.66;73.02
60417;BME280;46263;44.726;10.396;2022-12-29T14:40:24;101093.69;;;12.72;74.68
60417;BME280;46263;44.726;10.396;2022-12-29T14:42:53;101079.63;;;12.78;74.31
60417;BME280;46263;44.726;10.396;2022-12-29T14:47:50;101073.84;;;12.71;74.65
60417;BME280;46263;44.726;10.396;2022-12-29T14:52:48;101083.50;;;12.75;74.40
60417;BME280;46263;44.726;10.396;2022-12-29T14:57:43;101089.34;;;12.77;74.90
60417;BME280;46263;44.726;10.396;2022-12-29T15:00:19;101071.75;;;12.76;74.35
60417;BME280;46263;44.726;10.396;2022-12-29T15:02:49;101076.13;;;12.72;75.05
60417;BME280;46263;44.726;10.396;2022-12-29T15:08:07;101067.94;;;12.74;74.76
60417;BME280;46263;44.726;10.396;2022-12-29T15:10:43;101070.50;;;12.72;74.94
60417;BME280;46263;44.726;10.396;2022-12-29T15:13:17;101058.25;;;12.75;74.80
60417;BME280;46263;44.726;10.396;2022-12-29T15:15:43;101049.59;;;12.73;74.93
60417;BME280;46263;44.726;10.396;2022-12-29T15:18:24;101048.81;;;12.72;75.07
60417;BME280;46263;44.726;10.396;2022-12-29T15:20:53;101048.31;;;12.74;74.67
60417;BME280;46263;44.726;10.396;2022-12-29T15:23:20;101063.06;;;12.80;74.75
60417;BME280;46263;44.726;10.396;2022-12-29T15:26:06;101068.91;;;12.82;74.61
60417;BME280;46263;44.726;10.396;2022-12-29T15:28:43;101061.00;;;12.80;74.72
60417;BME280;46263;44.726;10.396;2022-12-29T15:31:13;101054.63;;;12.80;74.84
60417;BME280;46263;44.726;10.396;2022-12-29T15:33:41;101050.84;;;12.77;74.91
60417;BME280;46263;44.726;10.396;2022-12-29T15:36:12;101028.94;;;12.76;74.73